ADDS METAR Data INFO
IDs: Format: Raw Decoded Include TAF

Data at: 1251 UTC 19 Oct 2017

KONX 191235Z AUTO 00000KT 10SM CLR 13/13 A3030 RMK AO2 T01320128
KONX 191215Z AUTO 00000KT 10SM CLR 12/12 A3030 RMK AO2 T01200116
KONX 191155Z AUTO 00000KT 10SM CLR 12/11 A3029 RMK AO2 T01150111 10336 20083
KONX 191135Z AUTO 00000KT 10SM CLR 11/11 A3029 RMK AO2 T01120109
KONX 191115Z AUTO 00000KT 10SM CLR 11/11 A3029 RMK AO2 T01080105
KONX 191055Z AUTO 00000KT 10SM CLR 11/10 A3029 RMK AO2 T01070104
KONX 191035Z AUTO 00000KT 10SM CLR 11/11 A3029 RMK AO2 T01080105
KONX 191015Z AUTO 00000KT 10SM CLR 11/11 A3029 RMK AO2 T01100107
KONX 190955Z AUTO 00000KT 10SM CLR 11/11 A3029 RMK AO2 T01110107
KONX 190935Z AUTO 00000KT 10SM CLR 11/11 A3029 RMK AO2 T01130110
KONX 190915Z AUTO 00000KT 10SM CLR 11/11 A3029 RMK AO2 T01140110
KONX 190855Z AUTO 00000KT 10SM CLR 11/11 A3029 RMK AO2 T01120109
KONX 190835Z AUTO 00000KT 10SM CLR 11/11 A3029 RMK AO2 T01130109
KONX 190815Z AUTO 00000KT 10SM CLR 11/11 A3029 RMK AO2 T01140109
KONX 190755Z AUTO 00000KT 10SM CLR 12/11 A3029 RMK AO2 T01170111
KONX 190735Z AUTO 00000KT 10SM CLR 12/11 A3029 RMK AO2 T01160111
KONX 190715Z AUTO 00000KT 10SM CLR 11/11 A3030 RMK AO2 T01140109
KONX 190655Z AUTO 00000KT 10SM CLR 11/11 A3030 RMK AO2 T01120108
KONX 190635Z AUTO 00000KT 10SM CLR 11/11 A3031 RMK AO2 T01140110
KONX 190615Z AUTO 00000KT 10SM CLR 11/11 A3031 RMK AO2 T01120109
KONX 190555Z AUTO 00000KT 10SM CLR 11/11 A3031 RMK AO2 T01110108 10336 20083
KONX 190535Z AUTO 00000KT 10SM CLR 11/11 A3032 RMK AO2 T01120108
KONX 190515Z AUTO 00000KT 10SM CLR 12/11 A3032 RMK AO2 T01160111
KONX 190455Z AUTO 00000KT 10SM CLR 12/11 A3032 RMK AO2 T01150111 403360083
KONX 190435Z AUTO 00000KT 10SM CLR 12/11 A3032 RMK AO2 T01150110
KONX 190415Z AUTO 00000KT 10SM CLR 12/11 A3032 RMK AO2 T01160111
KONX 190355Z AUTO 00000KT 10SM CLR 12/11 A3033 RMK AO2 T01160111
KONX 190335Z AUTO 00000KT 10SM CLR 12/11 A3033 RMK AO2 T01160111
KONX 190315Z AUTO 00000KT 10SM CLR 12/11 A3034 RMK AO2 T01150110
KONX 190255Z AUTO 00000KT 10SM CLR 12/11 A3034 RMK AO2 T01170111
KONX 190235Z AUTO 00000KT 10SM CLR 12/11 A3034 RMK AO2 T01210114
KONX 190215Z AUTO 00000KT 10SM CLR 12/11 A3034 RMK AO2 T01210114
KONX 190155Z AUTO 00000KT 10SM CLR 12/12 A3034 RMK AO2 T01220115
KONX 190135Z AUTO 00000KT 10SM CLR 12/12 A3034 RMK AO2 T01220115
KONX 190115Z AUTO 00000KT 10SM CLR 13/12 A3034 RMK AO2 T01250116
KONX 190055Z AUTO 00000KT 10SM CLR 13/12 A3034 RMK AO2 T01260115
KONX 190035Z AUTO 00000KT 10SM CLR 13/12 A3034 RMK AO2 T01310119
KONX 190015Z AUTO 00000KT 10SM CLR 14/13 A3034 RMK AO2 T01360125
KONX 182355Z AUTO 00000KT 10SM CLR 14/12 A3034 RMK AO2 T01380124 10336 20083
KONX 182335Z AUTO 00000KT 10SM CLR 14/13 A3034 RMK AO2 T01410127
KONX 182315Z AUTO 00000KT 10SM CLR 15/12 A3033 RMK AO2 T01470124
KONX 182255Z AUTO 00000KT 10SM CLR 16/12 A3033 RMK AO2 T01590120
KONX 182235Z AUTO 00000KT 10SM CLR 17/12 A3033 RMK AO2 T01680119
KONX 182215Z AUTO 05003KT 10SM CLR 17/12 A3033 RMK AO2 T01740118
KONX 182155Z AUTO 06003KT 10SM CLR 18/12 A3033 RMK AO2 T01780118
KONX 182135Z AUTO 05004KT 10SM CLR 18/12 A3033 RMK AO2 T01800116
KONX 182115Z AUTO 04005KT 10SM CLR 18/12 A3033 RMK AO2 T01820115
KONX 182055Z AUTO 04005KT 10SM CLR 18/12 A3033 RMK AO2 T01840115
KONX 182035Z AUTO 06005KT 10SM CLR 19/12 A3034 RMK AO2 T01860116
KONX 182015Z AUTO 07004KT 10SM CLR 19/12 A3034 RMK AO2 T01860116
KONX 181955Z AUTO 06006KT 10SM CLR 19/11 A3034 RMK AO2 T01870114
KONX 181935Z AUTO 07005KT 10SM CLR 19/12 A3035 RMK AO2 T01890116
KONX 181915Z AUTO 05005KT 10SM CLR 19/12 A3035 RMK AO2 T01890117
KONX 181855Z AUTO 05005KT 10SM CLR 19/12 A3035 RMK AO2 T01870115
KONX 181835Z AUTO 06005KT 10SM CLR 19/12 A3036 RMK AO2 T01900115
KONX 181815Z AUTO 03006KT 10SM CLR 19/12 A3036 RMK AO2 T01880115
KONX 181755Z AUTO 05007KT 10SM CLR 19/11 A3036 RMK AO2 T01890114 10336 20083
KONX 181735Z AUTO 04007KT 10SM CLR 19/11 A3037 RMK AO2 T01870113
KONX 181715Z AUTO 04007KT 10SM CLR 19/11 A3038 RMK AO2 T01860111
KONX 181655Z AUTO 06007KT 10SM SCT032 19/11 A3039 RMK AO2 T01860110
KONX 181635Z AUTO 05006KT 10SM SCT032 18/11 A3039 RMK AO2 T01830108
KONX 181615Z AUTO 04007KT 10SM SCT032 18/11 A3040 RMK AO2 T01810105
KONX 181555Z AUTO 06005KT 10SM CLR 18/10 A3040 RMK AO2 T01810104
KONX 181535Z AUTO 06009KT 10SM CLR 18/11 A3039 RMK AO2 T01800107
KONX 181515Z AUTO 06007KT 10SM CLR 18/10 A3039 RMK AO2 T01760104
KONX 181455Z AUTO 05007KT 10SM SCT030 17/10 A3040 RMK AO2 T01740102
KONX 181435Z AUTO 05007KT 10SM SCT030 17/10 A3039 RMK AO2 T01670104
KONX 181415Z AUTO 05005KT 10SM CLR 17/11 A3039 RMK AO2 T01650106
KONX 181355Z AUTO 06006KT 10SM CLR 16/11 A3039 RMK AO2 T01630107
KONX 181335Z AUTO 04006KT 10SM CLR 15/11 A3038 RMK AO2 T01450112
KONX 181315Z AUTO 00000KT 10SM CLR 13/11 A3038 RMK AO2 T01280106
KONX 181255Z AUTO 00000KT 10SM CLR 12/10 A3038 RMK AO2 T01150099
KONX 181235Z AUTO 00000KT 10SM CLR 10/09 A3037 RMK AO2 T01010091
KONX 181215Z AUTO 00000KT 10SM CLR 09/08 A3036 RMK AO2 T00910083
KONX 181155Z AUTO 00000KT 10SM CLR 09/08 A3036 RMK AO2 T00850079 10336 20083
KONX 181135Z AUTO 00000KT 10SM CLR 08/08 A3035 RMK AO2 T00830077
KONX 181115Z AUTO 00000KT 10SM CLR 08/08 A3035 RMK AO2 T00830076
KONX 181055Z AUTO 00000KT 10SM CLR 08/08 A3035 RMK AO2 T00840077
KONX 181035Z AUTO 00000KT 10SM CLR 09/08 A3034 RMK AO2 T00850077
KONX 181015Z AUTO 00000KT 10SM CLR 09/08 A3034 RMK AO2 T00850076
KONX 180955Z AUTO 00000KT 10SM CLR 09/08 A3033 RMK AO2 T00850076
KONX 180935Z AUTO 00000KT 10SM CLR 09/08 A3033 RMK AO2 T00850076
KONX 180915Z AUTO 00000KT 10SM CLR 09/08 A3033 RMK AO2 T00870076
KONX 180855Z AUTO 00000KT 10SM CLR 09/08 A3032 RMK AO2 T00870076
KONX 180835Z AUTO 00000KT 10SM CLR 09/08 A3032 RMK AO2 T00860075
KONX 180815Z AUTO 00000KT 10SM CLR 09/08 A3031 RMK AO2 T00850075
KONX 180755Z AUTO 00000KT 10SM CLR 09/08 A3031 RMK AO2 T00870075
KONX 180735Z AUTO 00000KT 10SM CLR 09/08 A3032 RMK AO2 T00870075
KONX 180715Z AUTO 33003KT 10SM CLR 08/07 A3032 RMK AO2 T00840073
KONX 180655Z AUTO 00000KT 10SM CLR 09/07 A3032 RMK AO2 T00850072
KONX 180635Z AUTO 00000KT 10SM CLR 09/07 A3033 RMK AO2 T00870073
KONX 180615Z AUTO 00000KT 10SM CLR 09/07 A3032 RMK AO2 T00870073
KONX 180555Z AUTO 00000KT 10SM CLR 09/07 A3032 RMK AO2 T00870073 10336 20086
KONX 180535Z AUTO 00000KT 10SM CLR 09/07 A3033 RMK AO2 T00860072
KONX 180515Z AUTO 00000KT 10SM CLR 09/07 A3033 RMK AO2 T00870072
KONX 180455Z AUTO 00000KT 10SM CLR 09/07 A3033 RMK AO2 T00890072 403360089
KONX 180435Z AUTO 00000KT 10SM CLR 09/07 A3033 RMK AO2 T00900072
KONX 180415Z AUTO 00000KT 10SM CLR 09/07 A3033 RMK AO2 T00900072
KONX 180355Z AUTO 00000KT 10SM CLR 09/07 A3034 RMK AO2 T00920073
KONX 180335Z AUTO 32003KT 10SM CLR 09/08 A3034 RMK AO2 T00910075
KONX 180315Z AUTO 00000KT 10SM CLR 10/08 A3034 RMK AO2 T00950077
KONX 180255Z AUTO 00000KT 10SM CLR 10/08 A3035 RMK AO2 T00960077
KONX 180235Z AUTO 00000KT 10SM SCT033 10/08 A3034 RMK AO2 T00980076
KONX 180215Z AUTO 00000KT 10SM SCT033 10/08 A3034 RMK AO2 T01000075
KONX 180155Z AUTO 33003KT 10SM BKN033 10/08 A3033 RMK AO2 T01020075
KONX 180135Z AUTO 00000KT 10SM BKN033 10/08 A3033 RMK AO2 T01030075
KONX 180115Z AUTO 33003KT 10SM SCT035 10/08 A3033 RMK AO2 T01040075
KONX 180055Z AUTO 00000KT 10SM SCT035 11/08 A3032 RMK AO2 T01070075